Algodones, New Mexico
Current Conditions -  °F | °C
As of 11:52 PM on Thursday 27 Nov 2014 (Local Time) from KABQ Reporting Station
Broken Clouds Broken Clouds  
Wind Chill: 41°   Ceiling: 25000
Heat Index: 41°   Visibility: 10mi
Dew Point: 21°   Wind: 0mph
Humidity: 45%   Direction: NA
Pressure: 30.32"   Gusts: NA
Location:  35.38°N, 106.48°W
Report Text: KABQ 280652Z 00000KT 10SM BKN250 05/M06 A3032 RMK AO2 SLP244 T00501061 401611006
Loading
Personal Weather Stations






























Interactive Weather Map New forecast layout! Learn more

10-Day Weather Forecast

Advertisements
Track Severe Weather on mobile